createdAt,value
2018-07-03T00:01:28.102Z,14.10
2018-07-03T00:03:56.493Z,14.10
2018-07-03T00:06:24.935Z,14.00
2018-07-03T00:08:53.362Z,14.10
2018-07-03T00:11:21.776Z,14.00
2018-07-03T00:13:50.181Z,14.00
2018-07-03T00:16:23.868Z,13.90
2018-07-03T00:18:52.296Z,13.90
2018-07-03T00:21:20.681Z,13.80
2018-07-03T00:23:49.158Z,13.70
2018-07-03T00:26:17.580Z,13.70
2018-07-03T00:28:46.001Z,13.60
2018-07-03T00:31:14.461Z,13.60
2018-07-03T00:33:42.940Z,13.50
2018-07-03T00:36:11.372Z,13.40
2018-07-03T00:38:39.833Z,13.40
2018-07-03T00:41:08.308Z,13.30
2018-07-03T00:43:36.802Z,13.30
2018-07-03T00:46:05.734Z,13.30
2018-07-03T00:48:34.152Z,13.30
2018-07-03T00:51:02.583Z,13.30
2018-07-03T00:53:30.998Z,13.20
2018-07-03T00:55:59.497Z,13.20
2018-07-03T00:58:27.888Z,13.20
2018-07-03T01:00:56.304Z,13.20
2018-07-03T01:03:24.761Z,13.00
2018-07-03T01:05:53.206Z,13.00
2018-07-03T01:08:21.638Z,12.90
2018-07-03T01:10:50.062Z,12.80
2018-07-03T01:13:18.613Z,12.80
2018-07-03T01:15:47.046Z,12.80
2018-07-03T01:18:15.539Z,12.80
2018-07-03T01:20:44.013Z,12.70
2018-07-03T01:23:12.508Z,12.70
2018-07-03T01:25:40.885Z,12.60
2018-07-03T01:28:09.258Z,12.60
2018-07-03T01:30:37.658Z,12.60
2018-07-03T01:33:06.045Z,12.60
2018-07-03T01:35:34.464Z,12.50
2018-07-03T01:38:02.876Z,12.50
2018-07-03T01:40:31.258Z,12.50
2018-07-03T01:42:59.674Z,12.50
2018-07-03T01:45:28.076Z,12.40
2018-07-03T01:47:56.454Z,12.40
2018-07-03T01:50:24.889Z,12.40
2018-07-03T01:52:53.257Z,12.40
2018-07-03T01:55:21.710Z,12.30
2018-07-03T01:57:50.152Z,12.20
2018-07-03T02:00:18.598Z,12.30
2018-07-03T02:02:46.975Z,12.30
2018-07-03T02:05:15.390Z,12.20
2018-07-03T02:07:43.729Z,12.20
2018-07-03T02:10:12.211Z,12.10
2018-07-03T02:12:40.608Z,12.00
2018-07-03T02:15:09.072Z,12.10
2018-07-03T02:17:37.498Z,12.00
2018-07-03T02:20:05.975Z,12.10
2018-07-03T02:22:34.366Z,12.00
2018-07-03T02:25:02.772Z,12.00
2018-07-03T02:27:31.154Z,11.90
2018-07-03T02:29:59.554Z,11.90
2018-07-03T02:32:28.039Z,11.80
2018-07-03T02:34:56.490Z,11.80
2018-07-03T02:37:24.939Z,11.80
2018-07-03T02:39:53.387Z,11.70
2018-07-03T02:42:21.800Z,11.80
2018-07-03T02:44:50.185Z,11.80
2018-07-03T02:47:18.679Z,11.90
2018-07-03T02:49:47.206Z,11.80
2018-07-03T02:52:15.868Z,11.80
2018-07-03T02:54:44.296Z,11.70
2018-07-03T02:57:12.717Z,11.70
2018-07-03T02:59:41.144Z,11.70
2018-07-03T03:02:09.572Z,11.70
2018-07-03T03:04:38.021Z,11.70
2018-07-03T03:07:06.487Z,11.80
2018-07-03T03:09:34.888Z,11.70
2018-07-03T03:12:03.479Z,11.60
2018-07-03T03:14:31.929Z,11.70
2018-07-03T03:17:00.433Z,11.60
2018-07-03T03:19:28.894Z,11.60
2018-07-03T03:21:57.297Z,11.60
2018-07-03T03:24:25.690Z,11.60
2018-07-03T03:26:54.073Z,11.50
2018-07-03T03:29:22.445Z,11.50
2018-07-03T03:31:50.857Z,11.50
2018-07-03T03:34:19.269Z,11.50
2018-07-03T03:36:47.772Z,11.60
2018-07-03T03:39:16.273Z,11.60
2018-07-03T03:41:44.833Z,11.60
2018-07-03T03:44:13.309Z,11.60
2018-07-03T03:46:41.716Z,11.60
2018-07-03T03:49:10.177Z,11.60
2018-07-03T03:51:38.595Z,11.70
2018-07-03T03:54:07.223Z,11.70
2018-07-03T03:56:35.660Z,11.80
2018-07-03T04:01:32.304Z,12.00
2018-07-03T04:04:00.719Z,12.00
2018-07-03T04:06:29.247Z,12.00
2018-07-03T04:08:57.884Z,12.00
2018-07-03T04:11:26.304Z,12.10
2018-07-03T04:13:54.710Z,12.20
2018-07-03T04:16:23.290Z,12.20
2018-07-03T04:18:51.709Z,12.20
2018-07-03T04:21:20.088Z,12.30
2018-07-03T04:23:48.589Z,12.40
2018-07-03T04:26:17.088Z,12.50
2018-07-03T04:28:45.618Z,12.60
2018-07-03T04:31:14.954Z,12.50
2018-07-03T04:33:43.435Z,12.60
2018-07-03T04:36:11.885Z,12.70
2018-07-03T04:38:40.363Z,12.90
2018-07-03T04:41:08.822Z,13.00
2018-07-03T04:43:37.248Z,13.30
2018-07-03T04:46:06.516Z,13.60
2018-07-03T04:48:34.989Z,13.80
2018-07-03T04:51:04.021Z,13.90
2018-07-03T04:53:32.427Z,14.10
2018-07-03T04:56:00.938Z,14.00
2018-07-03T04:58:29.362Z,14.00
2018-07-03T05:00:57.795Z,14.20
2018-07-03T05:03:26.270Z,14.50
2018-07-03T05:05:54.696Z,14.70
2018-07-03T05:08:23.216Z,14.90
2018-07-03T05:10:51.783Z,14.80
2018-07-03T05:13:20.265Z,15.10
2018-07-03T05:15:48.764Z,15.50
2018-07-03T05:18:17.261Z,15.80
2018-07-03T05:20:45.805Z,16.00
2018-07-03T05:23:14.262Z,16.30
2018-07-03T05:25:42.828Z,16.60
2018-07-03T05:28:11.328Z,17.30
2018-07-03T05:30:39.865Z,17.40
2018-07-03T05:33:08.332Z,18.20
2018-07-03T05:35:43.073Z,18.10
2018-07-03T05:38:11.782Z,18.10
2018-07-03T05:40:40.242Z,18.60
2018-07-03T05:43:08.704Z,18.90
2018-07-03T05:45:37.467Z,19.20
2018-07-03T05:48:06.053Z,19.70
2018-07-03T05:50:34.801Z,20.00
2018-07-03T05:53:03.276Z,19.90
2018-07-03T05:55:31.839Z,20.10
2018-07-03T05:58:00.431Z,20.30
2018-07-03T06:00:28.997Z,19.60
2018-07-03T06:02:57.475Z,19.20
2018-07-03T06:05:25.928Z,19.40
2018-07-03T06:07:54.380Z,19.90
2018-07-03T06:10:22.935Z,19.80
2018-07-03T06:12:51.378Z,20.40
2018-07-03T06:15:19.787Z,20.50
2018-07-03T06:17:48.254Z,21.10
2018-07-03T06:20:16.728Z,21.50
2018-07-03T06:22:45.279Z,21.80
2018-07-03T06:25:13.712Z,21.50
2018-07-03T06:27:42.134Z,22.10
2018-07-03T06:30:10.620Z,21.90
2018-07-03T06:32:39.128Z,21.60
2018-07-03T06:35:07.675Z,21.50
2018-07-03T06:37:36.349Z,21.40
2018-07-03T06:40:05.498Z,21.80
2018-07-03T06:42:34.137Z,22.40
2018-07-03T06:45:03.093Z,22.70
2018-07-03T06:47:31.305Z,23.40
2018-07-03T06:49:59.753Z,23.80
2018-07-03T06:52:28.194Z,23.60
2018-07-03T06:54:56.638Z,24.00
2018-07-03T06:57:25.085Z,23.80
2018-07-03T06:59:53.676Z,23.40
2018-07-03T07:04:50.401Z,23.60
2018-07-03T07:07:18.808Z,24.30
2018-07-03T07:12:15.477Z,25.30
2018-07-03T07:14:44.122Z,25.60
2018-07-03T07:17:12.633Z,25.40
2018-07-03T07:19:41.142Z,25.60
2018-07-03T07:22:09.680Z,26.10
2018-07-03T07:24:38.110Z,25.80
2018-07-03T07:27:06.558Z,25.40
2018-07-03T07:29:35.041Z,25.60
2018-07-03T07:32:03.553Z,26.60
2018-07-03T07:34:31.931Z,26.10
2018-07-03T07:37:00.371Z,26.30
2018-07-03T07:39:28.853Z,26.70
2018-07-03T07:41:57.311Z,26.20
2018-07-03T07:44:25.733Z,26.10
2018-07-03T07:46:54.193Z,26.80
2018-07-03T07:49:22.695Z,27.50
2018-07-03T07:51:51.224Z,26.90
2018-07-03T07:54:19.686Z,26.90
2018-07-03T07:56:48.176Z,27.30
2018-07-03T07:59:16.696Z,27.90
2018-07-03T08:01:45.276Z,28.50
2018-07-03T08:04:13.695Z,28.40
2018-07-03T08:06:42.178Z,27.60
2018-07-03T08:09:10.940Z,28.60
2018-07-03T08:11:39.437Z,28.30
2018-07-03T08:14:07.975Z,28.80
2018-07-03T08:16:36.407Z,29.20
2018-07-03T08:19:04.947Z,29.60
2018-07-03T08:21:33.432Z,29.10
2018-07-03T08:24:01.958Z,29.20
2018-07-03T08:26:30.474Z,29.20
2018-07-03T08:28:58.977Z,29.20
2018-07-03T08:31:27.498Z,29.20
2018-07-03T08:33:56.072Z,29.40
2018-07-03T08:36:24.597Z,27.70
2018-07-03T08:38:53.216Z,27.90
2018-07-03T08:41:21.765Z,29.30
2018-07-03T08:43:50.333Z,30.10
2018-07-03T08:46:18.856Z,29.80
2018-07-03T08:48:47.255Z,29.20
2018-07-03T08:51:15.754Z,26.60
2018-07-03T08:53:44.223Z,27.70
2018-07-03T08:56:12.689Z,27.40
2018-07-03T08:58:41.118Z,28.50
2018-07-03T09:01:09.894Z,29.00
2018-07-03T09:03:38.323Z,28.60
2018-07-03T09:06:06.954Z,28.50
2018-07-03T09:08:35.426Z,28.60
2018-07-03T09:11:03.941Z,29.70
2018-07-03T09:13:32.431Z,30.30
2018-07-03T09:16:00.923Z,30.50
2018-07-03T09:18:29.624Z,30.90
2018-07-03T09:20:58.207Z,29.70
2018-07-03T09:23:26.796Z,30.00
2018-07-03T09:25:55.240Z,31.30
2018-07-03T09:28:23.690Z,31.10
2018-07-03T09:30:53.163Z,30.20
2018-07-03T09:33:21.601Z,30.30
2018-07-03T09:35:50.174Z,28.10
2018-07-03T09:38:18.626Z,29.50
2018-07-03T09:40:47.141Z,30.10
2018-07-03T09:43:15.619Z,30.50
2018-07-03T09:45:44.217Z,30.50
2018-07-03T09:48:12.659Z,31.40
2018-07-03T09:50:41.178Z,31.00
2018-07-03T09:53:09.718Z,30.80
2018-07-03T09:55:38.258Z,30.30
2018-07-03T09:58:06.840Z,30.30
2018-07-03T10:00:40.533Z,30.80
2018-07-03T10:03:09.066Z,31.40
2018-07-03T10:05:37.574Z,31.90
2018-07-03T10:08:06.051Z,32.10
2018-07-03T10:10:34.540Z,31.40
2018-07-03T10:13:03.052Z,31.20
2018-07-03T10:15:31.455Z,31.40
2018-07-03T10:17:59.922Z,32.40
2018-07-03T10:20:28.391Z,32.00
2018-07-03T10:22:56.814Z,31.70
2018-07-03T10:25:25.293Z,32.40
2018-07-03T10:27:53.762Z,33.60
2018-07-03T10:30:22.184Z,32.70
2018-07-03T10:32:50.617Z,32.20
2018-07-03T10:35:19.266Z,32.20
2018-07-03T10:37:47.833Z,33.00
2018-07-03T10:40:16.389Z,33.10
2018-07-03T10:42:44.879Z,32.30
2018-07-03T10:45:13.579Z,31.10
2018-07-03T10:47:42.125Z,32.00
2018-07-03T10:50:10.612Z,33.10
2018-07-03T10:52:39.021Z,32.90
2018-07-03T10:55:07.484Z,33.60
2018-07-03T10:57:35.975Z,33.70
2018-07-03T11:00:05.452Z,32.80
2018-07-03T11:02:33.903Z,33.80
2018-07-03T11:05:02.380Z,34.50
2018-07-03T11:07:30.828Z,33.80
2018-07-03T11:09:59.294Z,33.20
2018-07-03T11:12:27.860Z,33.00
2018-07-03T11:14:56.738Z,33.40
2018-07-03T11:17:25.351Z,33.00
2018-07-03T11:19:54.034Z,33.80
2018-07-03T11:24:50.645Z,35.40
2018-07-03T11:27:19.139Z,35.90
2018-07-03T11:29:47.614Z,35.70
2018-07-03T11:32:16.038Z,35.10
2018-07-03T11:37:12.677Z,36.40
2018-07-03T11:39:41.111Z,36.10
2018-07-03T11:42:09.607Z,35.50
2018-07-03T11:44:38.075Z,35.20
2018-07-03T11:47:06.828Z,36.70
2018-07-03T11:49:35.377Z,36.80
2018-07-03T11:52:04.027Z,34.10
2018-07-03T11:54:32.634Z,34.60
2018-07-03T11:57:01.131Z,35.40
2018-07-03T11:59:29.649Z,36.10
2018-07-03T12:01:58.226Z,35.70
2018-07-03T12:04:26.913Z,35.00
2018-07-03T12:06:57.036Z,34.90
2018-07-03T12:09:26.136Z,35.20
2018-07-03T12:11:54.672Z,35.10
2018-07-03T12:14:23.196Z,35.30
2018-07-03T12:16:51.869Z,34.90
2018-07-03T12:19:20.494Z,34.80
2018-07-03T12:21:48.988Z,34.90
2018-07-03T12:24:17.529Z,35.60
2018-07-03T12:26:46.068Z,34.80
2018-07-03T12:29:14.867Z,33.60
2018-07-03T12:31:43.560Z,34.90
2018-07-03T12:34:13.628Z,34.60
2018-07-03T12:39:11.568Z,33.70
2018-07-03T12:41:40.337Z,34.50
2018-07-03T12:44:09.030Z,35.70
2018-07-03T12:46:37.719Z,35.20
2018-07-03T12:49:06.548Z,35.40
2018-07-03T12:51:35.281Z,36.20
2018-07-03T12:54:04.203Z,36.20
2018-07-03T12:56:32.845Z,36.00
2018-07-03T12:59:01.508Z,36.20
2018-07-03T13:03:58.616Z,35.30
2018-07-03T13:06:27.441Z,34.90
2018-07-03T13:08:56.097Z,34.50
2018-07-03T13:11:24.680Z,35.20
2018-07-03T13:13:53.239Z,34.50
2018-07-03T13:16:21.829Z,34.80
2018-07-03T13:18:50.458Z,35.20
2018-07-03T13:21:19.042Z,35.90
2018-07-03T13:23:47.609Z,35.30
2018-07-03T13:26:16.247Z,34.20
2018-07-03T13:28:44.948Z,33.50
2018-07-03T13:31:14.019Z,32.30
2018-07-03T13:33:42.747Z,32.00
2018-07-03T13:36:11.391Z,30.90
2018-07-03T13:38:40.493Z,30.90
2018-07-03T13:41:09.237Z,31.20
2018-07-03T13:43:37.789Z,31.50
2018-07-03T13:46:06.418Z,30.80
2018-07-03T13:48:35.741Z,31.20
2018-07-03T13:51:04.316Z,31.40
2018-07-03T13:53:32.893Z,30.90
2018-07-03T13:56:01.582Z,30.80
2018-07-03T13:58:30.088Z,30.60
2018-07-03T14:00:58.739Z,30.90
2018-07-03T14:05:55.782Z,30.30
2018-07-03T14:08:24.661Z,30.30
2018-07-03T14:10:53.197Z,30.20
2018-07-03T14:15:49.980Z,29.70
2018-07-03T14:18:22.863Z,29.30
2018-07-03T14:20:51.417Z,29.70
2018-07-03T14:23:20.005Z,28.90
2018-07-03T14:25:48.714Z,28.70
2018-07-03T14:28:17.340Z,28.90
2018-07-03T14:30:45.991Z,29.10
2018-07-03T14:33:14.552Z,29.10
2018-07-03T14:35:43.075Z,29.20
2018-07-03T14:38:11.883Z,29.30
2018-07-03T14:40:40.462Z,29.50
2018-07-03T14:43:09.070Z,29.80
2018-07-03T14:45:37.752Z,29.50
2018-07-03T14:48:07.028Z,29.50
2018-07-03T14:50:35.559Z,29.40
2018-07-03T14:53:04.448Z,29.20
2018-07-03T14:55:33.405Z,29.20
2018-07-03T14:58:02.062Z,29.20
2018-07-03T15:00:30.842Z,29.20
2018-07-03T15:02:59.384Z,29.30
2018-07-03T15:05:27.921Z,29.60
2018-07-03T15:07:56.489Z,29.70
2018-07-03T15:10:26.115Z,29.70
2018-07-03T15:12:55.196Z,29.90
2018-07-03T15:15:23.755Z,29.80
2018-07-03T15:17:52.457Z,29.60
2018-07-03T15:20:21.150Z,29.60
2018-07-03T15:25:17.849Z,29.20
2018-07-03T15:27:46.368Z,29.30
2018-07-03T15:30:18.661Z,28.60
2018-07-03T15:32:47.571Z,28.60
2018-07-03T15:35:16.419Z,28.40
2018-07-03T15:37:45.331Z,28.60
2018-07-03T15:40:13.983Z,28.80
2018-07-03T15:42:42.578Z,28.80
2018-07-03T15:45:13.516Z,29.00
2018-07-03T15:47:42.217Z,29.00
2018-07-03T15:50:12.038Z,29.10
2018-07-03T15:52:40.530Z,29.00
2018-07-03T15:55:09.957Z,28.90
2018-07-03T15:57:38.789Z,28.70
2018-07-03T16:00:09.590Z,28.40
2018-07-03T16:02:38.268Z,28.10
2018-07-03T16:05:19.732Z,27.90
2018-07-03T16:08:32.665Z,28.10
2018-07-03T16:11:01.226Z,28.30
2018-07-03T16:13:29.942Z,28.60
2018-07-03T16:15:58.596Z,28.40
2018-07-03T16:18:27.805Z,28.50
2018-07-03T16:20:56.419Z,28.40
2018-07-03T16:23:25.012Z,28.50
2018-07-03T16:25:53.865Z,28.50
2018-07-03T16:28:22.344Z,28.60
2018-07-03T16:30:51.121Z,28.60
2018-07-03T16:33:19.793Z,28.10
2018-07-03T16:35:48.821Z,28.20
2018-07-03T16:38:17.754Z,28.10
2018-07-03T16:40:46.398Z,28.20
2018-07-03T16:43:15.050Z,28.30
2018-07-03T16:45:43.745Z,28.30
2018-07-03T16:48:12.392Z,27.80
2018-07-03T16:50:41.399Z,27.60
2018-07-03T16:53:09.961Z,27.20
2018-07-03T16:55:39.024Z,27.00
2018-07-03T16:58:07.677Z,27.00
2018-07-03T17:00:36.310Z,26.90
2018-07-03T17:03:05.024Z,26.70
2018-07-03T17:05:33.599Z,26.80
2018-07-03T17:08:02.443Z,27.00
2018-07-03T17:10:31.071Z,27.00
2018-07-03T17:12:59.589Z,26.90
2018-07-03T17:15:28.265Z,27.00
2018-07-03T17:17:56.985Z,27.10
2018-07-03T17:20:25.494Z,27.30
2018-07-03T17:22:54.272Z,27.40
2018-07-03T17:25:22.902Z,27.50
2018-07-03T17:27:51.618Z,27.40
2018-07-03T17:30:20.371Z,27.30
2018-07-03T17:32:49.228Z,27.20
2018-07-03T17:35:17.819Z,27.10
2018-07-03T17:37:46.577Z,27.10
2018-07-03T17:40:26.381Z,27.10
2018-07-03T17:43:35.464Z,27.00
2018-07-03T17:46:06.414Z,26.90
2018-07-03T17:48:35.099Z,27.00
2018-07-03T17:51:03.679Z,26.90
2018-07-03T17:53:32.471Z,26.80
2018-07-03T17:56:01.165Z,26.80
2018-07-03T17:58:29.845Z,26.80
2018-07-03T18:00:58.548Z,26.60
2018-07-03T18:03:27.370Z,26.50
2018-07-03T18:05:55.894Z,26.40
2018-07-03T18:08:24.641Z,26.40
2018-07-03T18:10:53.485Z,26.30
2018-07-03T18:13:22.091Z,26.20
2018-07-03T18:15:50.873Z,26.20
2018-07-03T18:18:19.613Z,26.10
2018-07-03T18:20:48.275Z,26.00
2018-07-03T18:23:17.263Z,25.90
2018-07-03T18:25:45.872Z,25.80
2018-07-03T18:28:14.790Z,25.70
2018-07-03T18:30:43.705Z,25.70
2018-07-03T18:33:12.470Z,25.60
2018-07-03T18:35:41.168Z,25.50
2018-07-03T18:38:09.917Z,25.40
2018-07-03T18:40:44.989Z,25.40
2018-07-03T18:43:13.867Z,25.20
2018-07-03T18:45:42.590Z,25.10
2018-07-03T18:48:11.227Z,25.00
2018-07-03T18:50:40.090Z,25.00
2018-07-03T18:53:09.509Z,25.00
2018-07-03T18:55:38.435Z,24.90
2018-07-03T18:58:07.112Z,24.80
2018-07-03T19:00:36.199Z,24.70
2018-07-03T19:03:05.379Z,24.50
2018-07-03T19:05:34.591Z,24.40
2018-07-03T19:08:03.783Z,24.30
2018-07-03T19:10:32.528Z,24.10
2018-07-03T19:13:01.350Z,24.10
2018-07-03T19:15:30.274Z,23.90
2018-07-03T19:17:59.225Z,23.90
2018-07-03T19:22:57.384Z,23.70
2018-07-03T19:25:26.880Z,23.50
2018-07-03T19:27:56.791Z,23.40
2018-07-03T19:30:26.179Z,23.40
2018-07-03T19:32:55.421Z,23.30
2018-07-03T19:35:24.791Z,23.30
2018-07-03T19:37:54.788Z,23.20
2018-07-03T19:40:24.472Z,23.10
2018-07-03T19:43:32.745Z,23.10
2018-07-03T19:46:02.508Z,23.00
2018-07-03T19:48:31.539Z,23.00
2018-07-03T19:51:00.556Z,22.90
2018-07-03T19:53:29.558Z,22.80
2018-07-03T19:55:59.561Z,22.70
2018-07-03T20:00:57.366Z,22.60
2018-07-03T20:03:26.473Z,22.50
2018-07-03T20:05:55.121Z,22.40
2018-07-03T20:08:23.926Z,22.30
2018-07-03T20:10:53.014Z,22.20
2018-07-03T20:13:22.170Z,22.20
2018-07-03T20:15:51.589Z,22.10
2018-07-03T20:18:21.090Z,22.10
2018-07-03T20:20:50.622Z,22.00
2018-07-03T20:23:20.230Z,22.00
2018-07-03T20:25:49.701Z,21.90
2018-07-03T20:28:19.092Z,21.80
2018-07-03T20:30:48.434Z,21.80
2018-07-03T20:33:17.759Z,21.70
2018-07-03T20:35:46.557Z,21.50
2018-07-03T20:38:15.333Z,21.40
2018-07-03T20:43:18.247Z,21.30
2018-07-03T20:45:46.958Z,21.30
2018-07-03T20:48:15.509Z,21.20
2018-07-03T20:50:44.043Z,21.20
2018-07-03T20:53:12.768Z,21.10
2018-07-03T20:58:09.716Z,21.00
2018-07-03T21:00:39.682Z,20.90
2018-07-03T21:03:08.569Z,20.80
2018-07-03T21:05:37.331Z,20.70
2018-07-03T21:08:06.284Z,20.60
2018-07-03T21:10:34.942Z,20.60
2018-07-03T21:13:03.579Z,20.60
2018-07-03T21:15:32.240Z,20.50
2018-07-03T21:18:00.754Z,20.50
2018-07-03T21:20:29.384Z,20.50
2018-07-03T21:22:58.058Z,20.50
2018-07-03T21:25:26.859Z,20.50
2018-07-03T21:27:55.959Z,20.40
2018-07-03T21:30:25.562Z,20.30
2018-07-03T21:32:54.148Z,20.20
2018-07-03T21:35:22.674Z,20.20
2018-07-03T21:37:51.185Z,20.20
2018-07-03T21:40:19.694Z,20.10
2018-07-03T21:42:48.229Z,20.10
2018-07-03T21:45:16.722Z,20.10
2018-07-03T21:47:45.354Z,20.00
2018-07-03T21:50:13.877Z,20.00
2018-07-03T21:52:42.633Z,20.00
2018-07-03T21:55:11.147Z,20.00
2018-07-03T21:57:39.652Z,20.00
2018-07-03T22:00:08.914Z,19.90
2018-07-03T22:02:37.764Z,19.90
2018-07-03T22:05:06.404Z,19.80
2018-07-03T22:07:34.899Z,19.80
2018-07-03T22:10:03.849Z,19.70
2018-07-03T22:12:32.699Z,19.70
2018-07-03T22:15:01.326Z,19.60
2018-07-03T22:19:57.926Z,19.60
2018-07-03T22:22:26.395Z,19.60
2018-07-03T22:24:54.814Z,19.50
2018-07-03T22:27:24.357Z,19.40
2018-07-03T22:29:52.850Z,19.40
2018-07-03T22:32:21.308Z,19.40
2018-07-03T22:34:49.759Z,19.30
2018-07-03T22:37:18.195Z,19.20
2018-07-03T22:39:46.752Z,19.10
2018-07-03T22:42:15.130Z,19.00
2018-07-03T22:44:43.690Z,19.10
2018-07-03T22:47:12.404Z,19.00
2018-07-03T22:49:41.190Z,19.00
2018-07-03T22:52:09.697Z,19.00
2018-07-03T22:54:38.218Z,19.00
2018-07-03T22:57:06.720Z,18.90
2018-07-03T22:59:35.180Z,18.90
2018-07-03T23:02:03.635Z,19.00
2018-07-03T23:04:32.077Z,18.90
2018-07-03T23:07:00.551Z,18.90
2018-07-03T23:09:29.019Z,18.90
2018-07-03T23:11:57.492Z,18.80
2018-07-03T23:14:25.950Z,18.70
2018-07-03T23:16:54.399Z,18.70
2018-07-03T23:19:22.863Z,18.60
2018-07-03T23:24:19.483Z,18.70
2018-07-03T23:26:48.040Z,18.70
2018-07-03T23:29:16.505Z,18.70
2018-07-03T23:31:45.055Z,18.60
2018-07-03T23:34:13.528Z,18.50
2018-07-03T23:36:42.058Z,18.50
2018-07-03T23:39:11.274Z,18.50
2018-07-03T23:41:39.794Z,18.50
2018-07-03T23:44:08.245Z,18.50
2018-07-03T23:46:48.127Z,18.50
2018-07-03T23:49:27.797Z,18.50
2018-07-03T23:52:07.505Z,18.40
2018-07-03T23:54:47.156Z,18.40
